sensor_id;sensor_type;location;lat;lon;timestamp;P1;durP1;ratioP1;P2;durP2;ratioP2
19482;SDS011;9882;51.166;6.992;2023-02-28T00:01:34;10.38;;;3.80;;
19482;SDS011;9882;51.166;6.992;2023-02-28T00:04:02;7.65;;;3.95;;
19482;SDS011;9882;51.166;6.992;2023-02-28T00:09:09;6.38;;;3.33;;
19482;SDS011;9882;51.166;6.992;2023-02-28T00:11:39;7.93;;;3.67;;
19482;SDS011;9882;51.166;6.992;2023-02-28T00:14:09;8.98;;;3.55;;
19482;SDS011;9882;51.166;6.992;2023-02-28T00:16:38;9.05;;;3.28;;
19482;SDS011;9882;51.166;6.992;2023-02-28T00:19:08;6.03;;;3.63;;
19482;SDS011;9882;51.166;6.992;2023-02-28T00:21:41;8.57;;;3.53;;
19482;SDS011;9882;51.166;6.992;2023-02-28T00:24:11;6.00;;;3.53;;
19482;SDS011;9882;51.166;6.992;2023-02-28T00:26:44;11.70;;;3.78;;
19482;SDS011;9882;51.166;6.992;2023-02-28T00:29:14;12.05;;;4.00;;
19482;SDS011;9882;51.166;6.992;2023-02-28T00:31:44;6.70;;;3.53;;
19482;SDS011;9882;51.166;6.992;2023-02-28T00:34:14;9.93;;;3.58;;
19482;SDS011;9882;51.166;6.992;2023-02-28T00:36:44;7.65;;;3.85;;
19482;SDS011;9882;51.166;6.992;2023-02-28T00:39:17;6.28;;;3.50;;
19482;SDS011;9882;51.166;6.992;2023-02-28T00:41:49;6.47;;;3.45;;
19482;SDS011;9882;51.166;6.992;2023-02-28T00:44:21;6.97;;;3.33;;
19482;SDS011;9882;51.166;6.992;2023-02-28T00:46:55;7.50;;;3.47;;
19482;SDS011;9882;51.166;6.992;2023-02-28T00:49:24;10.15;;;3.55;;
19482;SDS011;9882;51.166;6.992;2023-02-28T00:51:55;5.43;;;3.08;;
19482;SDS011;9882;51.166;6.992;2023-02-28T00:54:25;18.45;;;4.13;;
19482;SDS011;9882;51.166;6.992;2023-02-28T00:56:57;9.90;;;3.60;;
19482;SDS011;9882;51.166;6.992;2023-02-28T00:59:27;6.13;;;3.65;;
19482;SDS011;9882;51.166;6.992;2023-02-28T01:01:56;6.35;;;3.53;;
19482;SDS011;9882;51.166;6.992;2023-02-28T01:04:26;9.88;;;3.60;;
19482;SDS011;9882;51.166;6.992;2023-02-28T01:06:55;8.38;;;3.92;;
19482;SDS011;9882;51.166;6.992;2023-02-28T01:09:25;6.38;;;3.40;;
19482;SDS011;9882;51.166;6.992;2023-02-28T01:11:54;6.72;;;3.17;;
19482;SDS011;9882;51.166;6.992;2023-02-28T01:14:25;9.13;;;3.75;;
19482;SDS011;9882;51.166;6.992;2023-02-28T01:16:55;7.82;;;3.63;;
19482;SDS011;9882;51.166;6.992;2023-02-28T01:19:24;8.48;;;3.47;;
19482;SDS011;9882;51.166;6.992;2023-02-28T01:21:54;7.35;;;3.30;;
19482;SDS011;9882;51.166;6.992;2023-02-28T01:24:23;5.40;;;3.33;;
19482;SDS011;9882;51.166;6.992;2023-02-28T01:26:56;6.95;;;3.35;;
19482;SDS011;9882;51.166;6.992;2023-02-28T01:29:26;5.20;;;3.33;;
19482;SDS011;9882;51.166;6.992;2023-02-28T01:31:55;8.13;;;3.53;;
19482;SDS011;9882;51.166;6.992;2023-02-28T01:34:26;8.38;;;3.72;;
19482;SDS011;9882;51.166;6.992;2023-02-28T01:36:56;10.27;;;3.78;;
19482;SDS011;9882;51.166;6.992;2023-02-28T01:39:26;9.43;;;4.03;;
19482;SDS011;9882;51.166;6.992;2023-02-28T01:41:57;11.65;;;3.97;;
19482;SDS011;9882;51.166;6.992;2023-02-28T01:47:28;3.70;;;3.20;;
19482;SDS011;9882;51.166;6.992;2023-02-28T01:49:59;5.90;;;3.33;;
19482;SDS011;9882;51.166;6.992;2023-02-28T01:52:32;8.52;;;3.80;;
19482;SDS011;9882;51.166;6.992;2023-02-28T01:55:02;7.65;;;4.30;;
19482;SDS011;9882;51.166;6.992;2023-02-28T01:57:38;9.40;;;3.75;;
19482;SDS011;9882;51.166;6.992;2023-02-28T02:00:11;7.63;;;3.30;;
19482;SDS011;9882;51.166;6.992;2023-02-28T02:02:46;7.82;;;3.75;;
19482;SDS011;9882;51.166;6.992;2023-02-28T02:05:19;7.70;;;3.85;;
19482;SDS011;9882;51.166;6.992;2023-02-28T02:07:50;8.00;;;3.72;;
19482;SDS011;9882;51.166;6.992;2023-02-28T02:10:24;5.68;;;3.40;;
19482;SDS011;9882;51.166;6.992;2023-02-28T02:13:10;9.63;;;3.53;;
19482;SDS011;9882;51.166;6.992;2023-02-28T02:15:54;8.15;;;3.67;;
19482;SDS011;9882;51.166;6.992;2023-02-28T02:18:33;7.70;;;3.67;;
19482;SDS011;9882;51.166;6.992;2023-02-28T02:27:20;8.75;;;4.03;;
19482;SDS011;9882;51.166;6.992;2023-02-28T02:30:02;10.18;;;3.67;;
19482;SDS011;9882;51.166;6.992;2023-02-28T02:33:05;6.78;;;3.35;;
19482;SDS011;9882;51.166;6.992;2023-02-28T02:35:59;7.85;;;3.70;;
19482;SDS011;9882;51.166;6.992;2023-02-28T02:38:34;8.07;;;3.80;;
19482;SDS011;9882;51.166;6.992;2023-02-28T02:41:12;8.45;;;3.88;;
19482;SDS011;9882;51.166;6.992;2023-02-28T02:43:46;7.18;;;3.47;;
19482;SDS011;9882;51.166;6.992;2023-02-28T02:46:19;4.47;;;3.20;;
19482;SDS011;9882;51.166;6.992;2023-02-28T02:48:52;5.50;;;3.15;;
19482;SDS011;9882;51.166;6.992;2023-02-28T02:51:26;7.47;;;3.72;;
19482;SDS011;9882;51.166;6.992;2023-02-28T02:53:59;10.98;;;4.30;;
19482;SDS011;9882;51.166;6.992;2023-02-28T02:56:33;10.30;;;4.20;;
19482;SDS011;9882;51.166;6.992;2023-02-28T02:59:06;6.63;;;3.78;;
19482;SDS011;9882;51.166;6.992;2023-02-28T03:01:40;6.95;;;3.97;;
19482;SDS011;9882;51.166;6.992;2023-02-28T03:04:12;6.53;;;3.97;;
19482;SDS011;9882;51.166;6.992;2023-02-28T03:06:48;8.77;;;3.58;;
19482;SDS011;9882;51.166;6.992;2023-02-28T03:09:21;6.55;;;3.42;;
19482;SDS011;9882;51.166;6.992;2023-02-28T03:11:51;6.60;;;3.70;;
19482;SDS011;9882;51.166;6.992;2023-02-28T03:14:25;6.63;;;3.70;;
19482;SDS011;9882;51.166;6.992;2023-02-28T03:20:07;8.25;;;4.00;;
19482;SDS011;9882;51.166;6.992;2023-02-28T03:22:47;6.65;;;3.63;;
19482;SDS011;9882;51.166;6.992;2023-02-28T03:25:27;9.00;;;3.95;;
19482;SDS011;9882;51.166;6.992;2023-02-28T03:28:01;12.85;;;4.20;;
19482;SDS011;9882;51.166;6.992;2023-02-28T03:30:38;8.65;;;4.22;;
19482;SDS011;9882;51.166;6.992;2023-02-28T03:33:13;9.18;;;3.95;;
19482;SDS011;9882;51.166;6.992;2023-02-28T03:35:45;11.32;;;4.25;;
19482;SDS011;9882;51.166;6.992;2023-02-28T03:38:22;10.30;;;4.05;;
19482;SDS011;9882;51.166;6.992;2023-02-28T03:40:57;9.80;;;4.47;;
19482;SDS011;9882;51.166;6.992;2023-02-28T03:43:34;8.38;;;4.53;;
19482;SDS011;9882;51.166;6.992;2023-02-28T03:46:07;10.32;;;4.43;;
19482;SDS011;9882;51.166;6.992;2023-02-28T03:48:39;10.48;;;4.43;;
19482;SDS011;9882;51.166;6.992;2023-02-28T03:51:11;14.68;;;4.10;;
19482;SDS011;9882;51.166;6.992;2023-02-28T03:53:46;7.53;;;4.13;;
19482;SDS011;9882;51.166;6.992;2023-02-28T03:56:21;12.73;;;4.43;;
19482;SDS011;9882;51.166;6.992;2023-02-28T03:58:54;6.85;;;3.92;;
19482;SDS011;9882;51.166;6.992;2023-02-28T04:01:30;13.50;;;4.70;;
19482;SDS011;9882;51.166;6.992;2023-02-28T04:04:03;8.52;;;4.40;;
19482;SDS011;9882;51.166;6.992;2023-02-28T04:06:34;11.82;;;4.30;;
19482;SDS011;9882;51.166;6.992;2023-02-28T04:09:05;11.48;;;4.43;;
19482;SDS011;9882;51.166;6.992;2023-02-28T04:11:36;8.48;;;4.38;;
19482;SDS011;9882;51.166;6.992;2023-02-28T04:14:06;11.80;;;4.45;;
19482;SDS011;9882;51.166;6.992;2023-02-28T04:16:38;9.60;;;4.15;;
19482;SDS011;9882;51.166;6.992;2023-02-28T04:19:09;11.48;;;4.32;;
19482;SDS011;9882;51.166;6.992;2023-02-28T04:21:39;9.60;;;4.50;;
19482;SDS011;9882;51.166;6.992;2023-02-28T04:24:13;7.63;;;4.00;;
19482;SDS011;9882;51.166;6.992;2023-02-28T04:26:44;8.32;;;3.80;;
19482;SDS011;9882;51.166;6.992;2023-02-28T04:29:17;6.00;;;3.60;;
19482;SDS011;9882;51.166;6.992;2023-02-28T04:31:48;6.60;;;3.45;;
19482;SDS011;9882;51.166;6.992;2023-02-28T04:34:18;5.40;;;3.45;;
19482;SDS011;9882;51.166;6.992;2023-02-28T04:36:48;7.53;;;3.50;;
19482;SDS011;9882;51.166;6.992;2023-02-28T04:39:35;7.70;;;3.78;;
19482;SDS011;9882;51.166;6.992;2023-02-28T04:42:05;8.35;;;3.55;;
19482;SDS011;9882;51.166;6.992;2023-02-28T04:44:34;10.88;;;4.05;;
19482;SDS011;9882;51.166;6.992;2023-02-28T04:47:03;6.20;;;3.63;;
19482;SDS011;9882;51.166;6.992;2023-02-28T04:49:33;5.85;;;3.47;;
19482;SDS011;9882;51.166;6.992;2023-02-28T04:52:02;8.43;;;3.72;;
19482;SDS011;9882;51.166;6.992;2023-02-28T04:54:31;5.18;;;3.53;;
19482;SDS011;9882;51.166;6.992;2023-02-28T04:57:02;12.07;;;3.78;;
19482;SDS011;9882;51.166;6.992;2023-02-28T04:59:31;7.82;;;4.20;;
19482;SDS011;9882;51.166;6.992;2023-02-28T05:02:01;6.97;;;3.55;;
19482;SDS011;9882;51.166;6.992;2023-02-28T05:04:33;6.20;;;3.70;;
19482;SDS011;9882;51.166;6.992;2023-02-28T05:07:03;5.35;;;3.83;;
19482;SDS011;9882;51.166;6.992;2023-02-28T05:09:32;10.10;;;4.28;;
19482;SDS011;9882;51.166;6.992;2023-02-28T05:12:02;9.45;;;4.00;;
19482;SDS011;9882;51.166;6.992;2023-02-28T05:14:31;7.45;;;3.80;;
19482;SDS011;9882;51.166;6.992;2023-02-28T05:16:59;5.72;;;3.92;;
19482;SDS011;9882;51.166;6.992;2023-02-28T05:19:27;7.22;;;4.13;;
19482;SDS011;9882;51.166;6.992;2023-02-28T05:21:56;7.47;;;3.78;;
19482;SDS011;9882;51.166;6.992;2023-02-28T05:24:24;6.07;;;3.80;;
19482;SDS011;9882;51.166;6.992;2023-02-28T05:26:54;11.15;;;3.72;;
19482;SDS011;9882;51.166;6.992;2023-02-28T05:29:24;8.68;;;3.88;;
19482;SDS011;9882;51.166;6.992;2023-02-28T05:31:52;6.45;;;3.88;;
19482;SDS011;9882;51.166;6.992;2023-02-28T05:34:21;4.05;;;3.28;;
19482;SDS011;9882;51.166;6.992;2023-02-28T05:36:49;5.93;;;3.35;;
19482;SDS011;9882;51.166;6.992;2023-02-28T05:39:17;8.88;;;4.13;;
19482;SDS011;9882;51.166;6.992;2023-02-28T05:41:46;10.05;;;4.03;;
19482;SDS011;9882;51.166;6.992;2023-02-28T05:44:14;6.45;;;3.60;;
19482;SDS011;9882;51.166;6.992;2023-02-28T05:46:44;7.57;;;3.60;;
19482;SDS011;9882;51.166;6.992;2023-02-28T05:49:13;8.30;;;3.83;;
19482;SDS011;9882;51.166;6.992;2023-02-28T05:51:41;5.78;;;3.70;;
19482;SDS011;9882;51.166;6.992;2023-02-28T05:54:10;6.93;;;3.88;;
19482;SDS011;9882;51.166;6.992;2023-02-28T05:56:39;9.18;;;4.22;;
19482;SDS011;9882;51.166;6.992;2023-02-28T05:59:10;8.20;;;3.83;;
19482;SDS011;9882;51.166;6.992;2023-02-28T06:01:40;8.02;;;4.00;;
19482;SDS011;9882;51.166;6.992;2023-02-28T06:04:16;6.75;;;4.28;;
19482;SDS011;9882;51.166;6.992;2023-02-28T06:06:57;11.57;;;4.57;;
19482;SDS011;9882;51.166;6.992;2023-02-28T06:09:25;8.80;;;4.25;;
19482;SDS011;9882;51.166;6.992;2023-02-28T06:11:54;10.25;;;4.90;;
19482;SDS011;9882;51.166;6.992;2023-02-28T06:14:25;8.15;;;4.47;;
19482;SDS011;9882;51.166;6.992;2023-02-28T06:16:53;8.60;;;4.53;;
19482;SDS011;9882;51.166;6.992;2023-02-28T06:19:26;8.23;;;4.18;;
19482;SDS011;9882;51.166;6.992;2023-02-28T06:21:55;7.65;;;4.00;;
19482;SDS011;9882;51.166;6.992;2023-02-28T06:24:26;7.93;;;3.72;;
19482;SDS011;9882;51.166;6.992;2023-02-28T06:26:55;6.13;;;3.92;;
19482;SDS011;9882;51.166;6.992;2023-02-28T06:29:25;9.43;;;4.32;;
19482;SDS011;9882;51.166;6.992;2023-02-28T06:31:53;6.80;;;4.10;;
19482;SDS011;9882;51.166;6.992;2023-02-28T06:34:22;7.97;;;4.40;;
19482;SDS011;9882;51.166;6.992;2023-02-28T06:36:52;8.05;;;3.80;;
19482;SDS011;9882;51.166;6.992;2023-02-28T06:39:20;7.88;;;4.30;;
19482;SDS011;9882;51.166;6.992;2023-02-28T06:41:49;6.03;;;3.92;;
19482;SDS011;9882;51.166;6.992;2023-02-28T06:44:21;7.60;;;4.07;;
19482;SDS011;9882;51.166;6.992;2023-02-28T06:46:51;15.32;;;4.70;;
19482;SDS011;9882;51.166;6.992;2023-02-28T06:49:19;9.50;;;4.50;;
19482;SDS011;9882;51.166;6.992;2023-02-28T06:51:47;11.73;;;4.43;;
19482;SDS011;9882;51.166;6.992;2023-02-28T06:54:17;6.78;;;3.97;;
19482;SDS011;9882;51.166;6.992;2023-02-28T06:56:47;11.10;;;4.88;;
19482;SDS011;9882;51.166;6.992;2023-02-28T06:59:15;9.63;;;4.38;;
19482;SDS011;9882;51.166;6.992;2023-02-28T07:01:44;9.45;;;4.57;;
19482;SDS011;9882;51.166;6.992;2023-02-28T07:04:13;7.05;;;3.80;;
19482;SDS011;9882;51.166;6.992;2023-02-28T07:06:41;7.93;;;4.15;;
19482;SDS011;9882;51.166;6.992;2023-02-28T07:09:10;9.55;;;4.20;;
19482;SDS011;9882;51.166;6.992;2023-02-28T07:11:40;8.02;;;4.38;;
19482;SDS011;9882;51.166;6.992;2023-02-28T07:14:09;7.88;;;4.63;;
19482;SDS011;9882;51.166;6.992;2023-02-28T07:16:38;7.15;;;4.47;;
19482;SDS011;9882;51.166;6.992;2023-02-28T07:19:06;10.13;;;4.50;;
19482;SDS011;9882;51.166;6.992;2023-02-28T07:21:34;13.43;;;4.82;;
19482;SDS011;9882;51.166;6.992;2023-02-28T07:24:03;7.65;;;4.40;;
19482;SDS011;9882;51.166;6.992;2023-02-28T07:26:33;7.43;;;3.95;;
19482;SDS011;9882;51.166;6.992;2023-02-28T07:29:03;6.13;;;3.58;;
19482;SDS011;9882;51.166;6.992;2023-02-28T07:31:31;8.18;;;3.95;;
19482;SDS011;9882;51.166;6.992;2023-02-28T07:34:00;12.20;;;4.28;;
19482;SDS011;9882;51.166;6.992;2023-02-28T07:36:29;6.90;;;3.85;;
19482;SDS011;9882;51.166;6.992;2023-02-28T07:38:57;5.15;;;4.03;;
19482;SDS011;9882;51.166;6.992;2023-02-28T07:41:26;8.00;;;4.18;;
19482;SDS011;9882;51.166;6.992;2023-02-28T07:43:56;7.90;;;3.95;;
19482;SDS011;9882;51.166;6.992;2023-02-28T07:46:27;5.85;;;3.65;;
19482;SDS011;9882;51.166;6.992;2023-02-28T07:49:02;7.25;;;4.22;;
19482;SDS011;9882;51.166;6.992;2023-02-28T07:51:30;4.97;;;3.55;;
19482;SDS011;9882;51.166;6.992;2023-02-28T07:53:59;6.40;;;3.95;;
19482;SDS011;9882;51.166;6.992;2023-02-28T07:56:28;7.35;;;3.67;;
19482;SDS011;9882;51.166;6.992;2023-02-28T07:58:57;12.45;;;4.28;;
19482;SDS011;9882;51.166;6.992;2023-02-28T08:01:25;6.43;;;3.97;;
19482;SDS011;9882;51.166;6.992;2023-02-28T08:03:55;7.20;;;3.47;;
19482;SDS011;9882;51.166;6.992;2023-02-28T08:06:24;7.50;;;4.40;;
19482;SDS011;9882;51.166;6.992;2023-02-28T08:08:53;6.18;;;3.55;;
19482;SDS011;9882;51.166;6.992;2023-02-28T08:11:22;8.57;;;3.97;;
19482;SDS011;9882;51.166;6.992;2023-02-28T08:13:51;7.78;;;4.50;;
19482;SDS011;9882;51.166;6.992;2023-02-28T08:16:19;4.07;;;3.03;;
19482;SDS011;9882;51.166;6.992;2023-02-28T08:18:49;8.93;;;4.13;;
19482;SDS011;9882;51.166;6.992;2023-02-28T08:21:20;7.93;;;4.10;;
19482;SDS011;9882;51.166;6.992;2023-02-28T08:23:49;12.52;;;4.30;;
19482;SDS011;9882;51.166;6.992;2023-02-28T08:26:19;10.00;;;3.58;;
19482;SDS011;9882;51.166;6.992;2023-02-28T08:28:48;7.65;;;3.90;;
19482;SDS011;9882;51.166;6.992;2023-02-28T08:31:17;8.80;;;4.30;;
19482;SDS011;9882;51.166;6.992;2023-02-28T08:33:46;6.97;;;3.75;;
19482;SDS011;9882;51.166;6.992;2023-02-28T08:36:17;11.50;;;4.30;;
19482;SDS011;9882;51.166;6.992;2023-02-28T08:38:48;9.55;;;3.90;;
19482;SDS011;9882;51.166;6.992;2023-02-28T08:41:16;6.40;;;3.80;;
19482;SDS011;9882;51.166;6.992;2023-02-28T08:43:45;6.80;;;3.50;;
19482;SDS011;9882;51.166;6.992;2023-02-28T08:46:13;8.40;;;4.07;;
19482;SDS011;9882;51.166;6.992;2023-02-28T08:48:42;6.75;;;3.80;;
19482;SDS011;9882;51.166;6.992;2023-02-28T08:51:12;5.35;;;3.70;;
19482;SDS011;9882;51.166;6.992;2023-02-28T08:53:44;7.00;;;3.88;;
19482;SDS011;9882;51.166;6.992;2023-02-28T08:56:13;5.75;;;3.15;;
19482;SDS011;9882;51.166;6.992;2023-02-28T08:58:43;4.90;;;3.38;;
19482;SDS011;9882;51.166;6.992;2023-02-28T09:01:13;9.23;;;4.00;;
19482;SDS011;9882;51.166;6.992;2023-02-28T09:03:43;6.57;;;3.65;;
19482;SDS011;9882;51.166;6.992;2023-02-28T09:06:13;6.85;;;3.35;;
19482;SDS011;9882;51.166;6.992;2023-02-28T09:08:44;7.15;;;3.72;;
19482;SDS011;9882;51.166;6.992;2023-02-28T09:11:13;8.18;;;3.88;;
19482;SDS011;9882;51.166;6.992;2023-02-28T09:13:42;11.55;;;3.80;;
19482;SDS011;9882;51.166;6.992;2023-02-28T09:16:11;5.13;;;3.47;;
19482;SDS011;9882;51.166;6.992;2023-02-28T09:18:41;10.00;;;3.45;;
19482;SDS011;9882;51.166;6.992;2023-02-28T09:21:11;3.70;;;2.83;;
19482;SDS011;9882;51.166;6.992;2023-02-28T09:23:41;6.80;;;3.65;;
19482;SDS011;9882;51.166;6.992;2023-02-28T09:26:14;6.07;;;3.58;;
19482;SDS011;9882;51.166;6.992;2023-02-28T09:28:43;8.25;;;3.15;;
19482;SDS011;9882;51.166;6.992;2023-02-28T09:31:13;6.95;;;4.10;;
19482;SDS011;9882;51.166;6.992;2023-02-28T09:33:42;4.40;;;3.08;;
19482;SDS011;9882;51.166;6.992;2023-02-28T09:36:11;6.65;;;3.47;;
19482;SDS011;9882;51.166;6.992;2023-02-28T09:38:39;5.68;;;3.13;;
19482;SDS011;9882;51.166;6.992;2023-02-28T09:41:11;10.15;;;3.88;;
19482;SDS011;9882;51.166;6.992;2023-02-28T09:43:44;5.72;;;3.25;;
19482;SDS011;9882;51.166;6.992;2023-02-28T09:46:19;6.30;;;3.38;;
19482;SDS011;9882;51.166;6.992;2023-02-28T09:48:54;4.07;;;2.95;;
19482;SDS011;9882;51.166;6.992;2023-02-28T09:51:30;4.10;;;3.33;;
19482;SDS011;9882;51.166;6.992;2023-02-28T09:54:05;6.05;;;3.15;;
19482;SDS011;9882;51.166;6.992;2023-02-28T09:56:39;8.77;;;3.58;;
19482;SDS011;9882;51.166;6.992;2023-02-28T09:59:10;5.88;;;3.25;;
19482;SDS011;9882;51.166;6.992;2023-02-28T10:01:49;4.07;;;2.85;;
19482;SDS011;9882;51.166;6.992;2023-02-28T10:04:33;5.15;;;3.03;;
19482;SDS011;9882;51.166;6.992;2023-02-28T10:07:12;4.72;;;3.17;;
19482;SDS011;9882;51.166;6.992;2023-02-28T10:09:51;5.88;;;3.65;;
19482;SDS011;9882;51.166;6.992;2023-02-28T10:12:23;5.43;;;3.40;;
19482;SDS011;9882;51.166;6.992;2023-02-28T10:14:55;3.65;;;2.95;;
19482;SDS011;9882;51.166;6.992;2023-02-28T10:17:30;7.63;;;3.17;;
19482;SDS011;9882;51.166;6.992;2023-02-28T10:20:10;3.53;;;2.83;;
19482;SDS011;9882;51.166;6.992;2023-02-28T10:22:50;4.47;;;3.28;;
19482;SDS011;9882;51.166;6.992;2023-02-28T10:25:22;6.45;;;3.30;;
19482;SDS011;9882;51.166;6.992;2023-02-28T10:27:54;7.70;;;3.20;;
19482;SDS011;9882;51.166;6.992;2023-02-28T10:30:29;8.45;;;3.50;;
19482;SDS011;9882;51.166;6.992;2023-02-28T10:32:57;8.40;;;3.63;;
19482;SDS011;9882;51.166;6.992;2023-02-28T10:35:26;11.00;;;3.30;;
19482;SDS011;9882;51.166;6.992;2023-02-28T10:37:56;4.43;;;3.28;;
19482;SDS011;9882;51.166;6.992;2023-02-28T10:40:29;6.57;;;2.95;;
19482;SDS011;9882;51.166;6.992;2023-02-28T10:43:01;5.55;;;3.20;;
19482;SDS011;9882;51.166;6.992;2023-02-28T10:45:31;9.10;;;2.97;;
19482;SDS011;9882;51.166;6.992;2023-02-28T10:48:03;5.82;;;3.42;;
19482;SDS011;9882;51.166;6.992;2023-02-28T10:50:35;3.80;;;3.17;;
19482;SDS011;9882;51.166;6.992;2023-02-28T10:53:10;5.82;;;3.25;;
19482;SDS011;9882;51.166;6.992;2023-02-28T10:55:45;3.63;;;2.92;;
19482;SDS011;9882;51.166;6.992;2023-02-28T10:58:25;3.90;;;2.85;;
19482;SDS011;9882;51.166;6.992;2023-02-28T11:00:55;4.93;;;3.22;;
19482;SDS011;9882;51.166;6.992;2023-02-28T11:03:29;5.28;;;3.10;;
19482;SDS011;9882;51.166;6.992;2023-02-28T11:06:04;5.95;;;3.25;;
19482;SDS011;9882;51.166;6.992;2023-02-28T11:08:42;7.10;;;3.70;;
19482;SDS011;9882;51.166;6.992;2023-02-28T11:11:16;4.05;;;2.90;;
19482;SDS011;9882;51.166;6.992;2023-02-28T11:13:47;4.93;;;3.13;;
19482;SDS011;9882;51.166;6.992;2023-02-28T11:16:20;4.50;;;3.30;;
19482;SDS011;9882;51.166;6.992;2023-02-28T11:18:50;7.63;;;3.40;;
19482;SDS011;9882;51.166;6.992;2023-02-28T11:21:22;4.45;;;3.33;;
19482;SDS011;9882;51.166;6.992;2023-02-28T11:23:56;5.22;;;3.25;;
19482;SDS011;9882;51.166;6.992;2023-02-28T11:26:37;3.15;;;2.50;;
19482;SDS011;9882;51.166;6.992;2023-02-28T11:29:12;3.92;;;3.17;;
19482;SDS011;9882;51.166;6.992;2023-02-28T11:32:00;5.30;;;3.60;;
19482;SDS011;9882;51.166;6.992;2023-02-28T11:34:44;5.47;;;3.42;;
19482;SDS011;9882;51.166;6.992;2023-02-28T11:37:15;7.38;;;3.67;;
19482;SDS011;9882;51.166;6.992;2023-02-28T11:39:46;5.35;;;3.38;;
19482;SDS011;9882;51.166;6.992;2023-02-28T11:42:28;6.55;;;3.30;;
19482;SDS011;9882;51.166;6.992;2023-02-28T11:45:14;6.30;;;3.42;;
19482;SDS011;9882;51.166;6.992;2023-02-28T11:47:52;8.27;;;3.30;;
19482;SDS011;9882;51.166;6.992;2023-02-28T11:50:38;5.75;;;3.17;;
19482;SDS011;9882;51.166;6.992;2023-02-28T11:53:17;11.27;;;3.13;;
19482;SDS011;9882;51.166;6.992;2023-02-28T11:55:54;7.47;;;3.47;;
19482;SDS011;9882;51.166;6.992;2023-02-28T11:58:34;11.60;;;3.85;;
19482;SDS011;9882;51.166;6.992;2023-02-28T12:01:18;6.22;;;3.50;;
19482;SDS011;9882;51.166;6.992;2023-02-28T12:03:58;7.28;;;3.40;;
19482;SDS011;9882;51.166;6.992;2023-02-28T12:06:40;7.43;;;3.30;;
19482;SDS011;9882;51.166;6.992;2023-02-28T12:09:20;4.85;;;3.17;;
19482;SDS011;9882;51.166;6.992;2023-02-28T12:11:59;6.85;;;3.78;;
19482;SDS011;9882;51.166;6.992;2023-02-28T12:14:47;4.78;;;2.95;;
19482;SDS011;9882;51.166;6.992;2023-02-28T12:17:29;7.38;;;3.20;;
19482;SDS011;9882;51.166;6.992;2023-02-28T12:20:10;7.65;;;3.38;;
19482;SDS011;9882;51.166;6.992;2023-02-28T12:22:50;6.82;;;3.00;;
19482;SDS011;9882;51.166;6.992;2023-02-28T12:25:43;5.93;;;2.75;;
19482;SDS011;9882;51.166;6.992;2023-02-28T12:28:21;5.07;;;2.90;;
19482;SDS011;9882;51.166;6.992;2023-02-28T12:30:54;11.25;;;3.28;;
19482;SDS011;9882;51.166;6.992;2023-02-28T12:33:31;7.72;;;3.38;;
19482;SDS011;9882;51.166;6.992;2023-02-28T12:36:03;7.60;;;3.50;;
19482;SDS011;9882;51.166;6.992;2023-02-28T12:38:38;8.45;;;3.33;;
19482;SDS011;9882;51.166;6.992;2023-02-28T12:41:12;6.55;;;3.25;;
19482;SDS011;9882;51.166;6.992;2023-02-28T12:43:43;7.63;;;2.75;;
19482;SDS011;9882;51.166;6.992;2023-02-28T12:46:14;6.30;;;2.78;;
19482;SDS011;9882;51.166;6.992;2023-02-28T12:48:50;5.85;;;3.20;;
19482;SDS011;9882;51.166;6.992;2023-02-28T12:51:22;5.50;;;2.90;;
19482;SDS011;9882;51.166;6.992;2023-02-28T12:53:54;11.98;;;3.35;;
19482;SDS011;9882;51.166;6.992;2023-02-28T12:56:33;5.93;;;3.28;;
19482;SDS011;9882;51.166;6.992;2023-02-28T12:59:10;7.00;;;3.03;;
19482;SDS011;9882;51.166;6.992;2023-02-28T13:04:59;5.78;;;3.00;;
19482;SDS011;9882;51.166;6.992;2023-02-28T13:07:49;4.93;;;2.78;;
19482;SDS011;9882;51.166;6.992;2023-02-28T13:10:42;8.30;;;3.20;;
19482;SDS011;9882;51.166;6.992;2023-02-28T13:13:14;4.75;;;2.88;;
19482;SDS011;9882;51.166;6.992;2023-02-28T13:16:01;7.95;;;3.50;;
19482;SDS011;9882;51.166;6.992;2023-02-28T13:18:33;3.63;;;2.70;;
19482;SDS011;9882;51.166;6.992;2023-02-28T13:21:05;6.53;;;3.35;;
19482;SDS011;9882;51.166;6.992;2023-02-28T13:23:40;5.85;;;3.20;;
19482;SDS011;9882;51.166;6.992;2023-02-28T13:29:27;3.85;;;2.85;;
19482;SDS011;9882;51.166;6.992;2023-02-28T13:35:13;7.47;;;3.03;;
19482;SDS011;9882;51.166;6.992;2023-02-28T13:38:21;5.55;;;3.13;;
19482;SDS011;9882;51.166;6.992;2023-02-28T13:44:09;7.53;;;3.50;;
19482;SDS011;9882;51.166;6.992;2023-02-28T13:49:40;9.18;;;4.03;;
19482;SDS011;9882;51.166;6.992;2023-02-28T13:52:10;5.30;;;3.20;;
19482;SDS011;9882;51.166;6.992;2023-02-28T13:54:52;5.25;;;2.95;;
19482;SDS011;9882;51.166;6.992;2023-02-28T13:57:47;6.13;;;3.58;;
19482;SDS011;9882;51.166;6.992;2023-02-28T14:00:28;5.68;;;3.28;;
19482;SDS011;9882;51.166;6.992;2023-02-28T14:06:07;6.32;;;2.88;;
19482;SDS011;9882;51.166;6.992;2023-02-28T14:08:45;9.60;;;3.60;;
19482;SDS011;9882;51.166;6.992;2023-02-28T14:11:26;7.85;;;3.30;;
19482;SDS011;9882;51.166;6.992;2023-02-28T14:13:56;6.75;;;3.33;;
19482;SDS011;9882;51.166;6.992;2023-02-28T14:16:26;9.57;;;3.40;;
19482;SDS011;9882;51.166;6.992;2023-02-28T14:18:58;5.75;;;3.15;;
19482;SDS011;9882;51.166;6.992;2023-02-28T14:21:29;9.35;;;3.33;;
19482;SDS011;9882;51.166;6.992;2023-02-28T14:27:08;5.43;;;3.13;;
19482;SDS011;9882;51.166;6.992;2023-02-28T14:30:02;7.30;;;3.22;;
19482;SDS011;9882;51.166;6.992;2023-02-28T14:32:54;11.13;;;3.88;;
19482;SDS011;9882;51.166;6.992;2023-02-28T14:35:40;6.65;;;3.30;;
19482;SDS011;9882;51.166;6.992;2023-02-28T14:38:18;6.32;;;3.10;;
19482;SDS011;9882;51.166;6.992;2023-02-28T14:40:49;5.55;;;2.80;;
19482;SDS011;9882;51.166;6.992;2023-02-28T14:43:23;6.30;;;3.20;;
19482;SDS011;9882;51.166;6.992;2023-02-28T14:45:54;6.97;;;3.15;;
19482;SDS011;9882;51.166;6.992;2023-02-28T14:48:25;9.63;;;3.58;;
19482;SDS011;9882;51.166;6.992;2023-02-28T14:50:55;4.82;;;3.05;;
19482;SDS011;9882;51.166;6.992;2023-02-28T14:53:27;5.38;;;3.20;;
19482;SDS011;9882;51.166;6.992;2023-02-28T14:55:58;5.07;;;3.00;;
19482;SDS011;9882;51.166;6.992;2023-02-28T14:58:29;5.53;;;2.70;;
19482;SDS011;9882;51.166;6.992;2023-02-28T15:00:59;8.38;;;3.13;;
19482;SDS011;9882;51.166;6.992;2023-02-28T15:03:30;5.43;;;3.00;;
19482;SDS011;9882;51.166;6.992;2023-02-28T15:06:00;5.05;;;3.10;;
19482;SDS011;9882;51.166;6.992;2023-02-28T15:08:30;6.45;;;3.20;;
19482;SDS011;9882;51.166;6.992;2023-02-28T15:11:03;6.00;;;3.53;;
19482;SDS011;9882;51.166;6.992;2023-02-28T15:13:38;6.07;;;3.15;;
19482;SDS011;9882;51.166;6.992;2023-02-28T15:16:09;7.55;;;3.42;;
19482;SDS011;9882;51.166;6.992;2023-02-28T15:18:42;8.75;;;3.47;;
19482;SDS011;9882;51.166;6.992;2023-02-28T15:21:15;4.93;;;3.17;;
19482;SDS011;9882;51.166;6.992;2023-02-28T15:23:46;6.47;;;3.30;;
19482;SDS011;9882;51.166;6.992;2023-02-28T15:26:19;10.00;;;3.40;;
19482;SDS011;9882;51.166;6.992;2023-02-28T15:28:52;6.10;;;3.45;;
19482;SDS011;9882;51.166;6.992;2023-02-28T15:31:26;12.68;;;3.58;;
19482;SDS011;9882;51.166;6.992;2023-02-28T15:34:05;9.45;;;3.58;;
19482;SDS011;9882;51.166;6.992;2023-02-28T15:36:34;6.47;;;3.10;;
19482;SDS011;9882;51.166;6.992;2023-02-28T15:39:16;7.82;;;3.50;;
19482;SDS011;9882;51.166;6.992;2023-02-28T15:41:47;9.95;;;3.55;;
19482;SDS011;9882;51.166;6.992;2023-02-28T15:44:23;6.95;;;3.45;;
19482;SDS011;9882;51.166;6.992;2023-02-28T15:46:59;9.55;;;3.30;;
19482;SDS011;9882;51.166;6.992;2023-02-28T15:49:33;7.28;;;3.25;;
19482;SDS011;9882;51.166;6.992;2023-02-28T15:52:12;11.27;;;3.83;;
19482;SDS011;9882;51.166;6.992;2023-02-28T15:54:44;8.60;;;3.70;;
19482;SDS011;9882;51.166;6.992;2023-02-28T15:57:15;9.15;;;4.15;;
19482;SDS011;9882;51.166;6.992;2023-02-28T15:59:50;4.63;;;3.22;;
19482;SDS011;9882;51.166;6.992;2023-02-28T16:02:25;9.07;;;3.33;;
19482;SDS011;9882;51.166;6.992;2023-02-28T16:05:00;16.35;;;3.83;;
19482;SDS011;9882;51.166;6.992;2023-02-28T16:07:45;6.70;;;3.60;;
19482;SDS011;9882;51.166;6.992;2023-02-28T16:10:15;6.97;;;3.60;;
19482;SDS011;9882;51.166;6.992;2023-02-28T16:12:43;8.27;;;3.95;;